This demonstration page uses our WeatherBlox Daily Observations layout. Learn more.

38.88101, -77.10428

Hourly Observations for August 6, 2017

Temp ( °F °C ) Dew Point ( °F °C ) Humidity (%) Winds ( mph kmh ) Pressure ( in mb ) Visibility ( mi km ) Precip ( " mm )
12:52 am 00:52 Partly Cloudy 71 21.7 56 13.3 59 59 W 7 11 30.09 1019 10 16.0934 0 0
1:52 am 01:52 Mostly Cloudy 71 21.7 56 13.3 59 59 W 6 9 30.09 1019 10 16.0934 0 0
2:52 am 02:52 Mostly Cloudy 70 21.1 56 13.3 61 61 W 3 6 30.08 1019 10 16.0934 0 0
3:52 am 03:52 Mostly Cloudy 67 19.4 58 14.4 73 73 SW 6 9 30.07 1018 10 16.0934 0 0
4:52 am 04:52 Mostly Cloudy 68 20 58 14.4 70 70 SSW 5 7 30.08 1019 10 16.0934 0 0
5:52 am 05:52 Mostly Cloudy 68 20 59 15 73 73 Calm 30.1 1019 10 16.0934 0 0
6:52 am 06:52 Mostly Cloudy 70 21.1 58 14.4 66 66 Calm 30.11 1020 10 16.0934 0 0
7:52 am 07:52 Mostly Cloudy 71 21.7 61 16.1 71 71 N 6 9 30.12 1020 10 16.0934 0 0
8:52 am 08:52 Mostly Cloudy 72 22.2 59 15 64 64 N 6 9 30.14 1021 10 16.0934 0 0
9:52 am 09:52 Mostly Cloudy 74 23.3 59 15 60 60 NNW 6 9 30.14 1021 10 16.0934 0 0
10:52 am 10:52 Mostly Cloudy 76 24.4 58 14.4 54 54 NW 7 11 30.14 1021 10 16.0934 0 0
11:52 am 11:52 Mostly Cloudy 78 25.6 59 15 52 52 N 7 11 30.15 1021 10 16.0934 0 0
12:52 pm 12:52 Mostly Cloudy 80 26.7 61 16.1 52 52 E 6 9 30.12 1020 10 16.0934 0 0
1:52 pm 13:52 Mostly Cloudy 81 27.2 60 15.6 49 49 ENE 3 6 30.12 1020 10 16.0934 0 0
2:52 pm 14:52 Mostly Cloudy 81 27.2 60 15.6 49 49 SSE 7 11 30.11 1020 10 16.0934 0 0
3:52 pm 15:52 Mostly Cloudy 81 27.2 60 15.6 49 49 SSE 8 13 30.1 1019 10 16.0934 0 0
4:52 pm 16:52 Mostly Cloudy 81 27.2 60 15.6 49 49 SSW 8 13 30.1 1019 10 16.0934 0 0
5:52 pm 17:52 Mostly Cloudy 81 27.2 61 16.1 51 51 S 7 11 30.09 1019 10 16.0934 0 0
6:52 pm 18:52 Mostly Cloudy 80 26.7 60 15.6 51 51 S 3 6 30.1 1019 10 16.0934 0 0
7:52 pm 19:52 Mostly Cloudy 79 26.1 60 15.6 52 52 SSE 6 9 30.09 1019 10 16.0934 0 0
8:52 pm 20:52 Mostly Cloudy 78 25.6 62 16.7 58 58 SSE 6 9 30.09 1019 10 16.0934 0 0
9:52 pm 21:52 Mostly Cloudy 76 24.4 65 18.3 69 69 S 9 15 30.1 1019 10 16.0934 0 0
10:52 pm 22:52 Mostly Cloudy 76 24.4 63 17.2 64 64 SSE 7 11 30.11 1020 10 16.0934 0 0
11:52 pm 23:52 Cloudy 76 24.4 64 17.8 67 67 SSE 10 17 30.11 1020 10 16.0934 0 0

Powered by AerisWeather